Hamon, Texas
Current Conditions -  °F | °C
As of 2:50 PM on Monday 22 Dec 2014 (Local Time) from KHYI Reporting Station
Clear Clear  
Wind Chill: 72°   Ceiling: Unl
Heat Index: 72°   Visibility: 10mi
Dew Point: 54°   Wind: 10mph
Humidity: 53%   Direction: 190°S
Pressure: 29.62"   Gusts: NA
Location:  29.481°N, 97.4305°W
Report Text: KHYI 222050Z 19009KT 10SM CLR 22/12 A2962
Loading
Personal Weather Stations






























Interactive Weather Map New forecast layout! Learn more

10-Day Weather Forecast

Advertisements
Track Severe Weather on mobile